sensor_id;sensor_type;location;lat;lon;timestamp;P1;durP1;ratioP1;P2;durP2;ratioP2
65753;SDS011;52488;47.502;18.940;2022-10-31T00:00:23;516.83;;;31.62;;
65753;SDS011;52488;47.502;18.940;2022-10-31T00:01:27;464.05;;;30.65;;
65753;SDS011;52488;47.502;18.940;2022-10-31T00:02:33;472.08;;;30.15;;
65753;SDS011;52488;47.502;18.940;2022-10-31T00:03:36;322.12;;;26.70;;
65753;SDS011;52488;47.502;18.940;2022-10-31T00:04:39;318.80;;;26.20;;
65753;SDS011;52488;47.502;18.940;2022-10-31T00:05:45;295.35;;;26.33;;
65753;SDS011;52488;47.502;18.940;2022-10-31T00:06:50;441.73;;;31.17;;
65753;SDS011;52488;47.502;18.940;2022-10-31T00:07:53;432.10;;;28.80;;
65753;SDS011;52488;47.502;18.940;2022-10-31T00:08:57;187.62;;;23.48;;
65753;SDS011;52488;47.502;18.940;2022-10-31T00:10:04;263.17;;;24.70;;
65753;SDS011;52488;47.502;18.940;2022-10-31T00:11:09;196.57;;;22.55;;
65753;SDS011;52488;47.502;18.940;2022-10-31T00:12:12;153.98;;;22.85;;
65753;SDS011;52488;47.502;18.940;2022-10-31T00:13:15;358.15;;;28.35;;
65753;SDS011;52488;47.502;18.940;2022-10-31T00:14:18;401.48;;;27.25;;
65753;SDS011;52488;47.502;18.940;2022-10-31T00:15:21;535.67;;;32.40;;
65753;SDS011;52488;47.502;18.940;2022-10-31T00:16:24;595.25;;;33.35;;
65753;SDS011;52488;47.502;18.940;2022-10-31T00:17:28;549.53;;;32.40;;
65753;SDS011;52488;47.502;18.940;2022-10-31T00:18:31;449.40;;;29.50;;
65753;SDS011;52488;47.502;18.940;2022-10-31T00:19:34;444.60;;;29.33;;
65753;SDS011;52488;47.502;18.940;2022-10-31T00:20:37;315.23;;;26.48;;
65753;SDS011;52488;47.502;18.940;2022-10-31T00:21:41;356.42;;;28.00;;
65753;SDS011;52488;47.502;18.940;2022-10-31T00:22:44;329.40;;;27.42;;
65753;SDS011;52488;47.502;18.940;2022-10-31T00:23:47;465.95;;;29.23;;
65753;SDS011;52488;47.502;18.940;2022-10-31T00:24:50;568.20;;;33.38;;
65753;SDS011;52488;47.502;18.940;2022-10-31T00:25:54;308.15;;;25.75;;
65753;SDS011;52488;47.502;18.940;2022-10-31T00:26:57;350.15;;;28.60;;
65753;SDS011;52488;47.502;18.940;2022-10-31T00:27:59;298.05;;;25.42;;
65753;SDS011;52488;47.502;18.940;2022-10-31T00:29:03;339.50;;;28.10;;
65753;SDS011;52488;47.502;18.940;2022-10-31T00:30:06;464.87;;;29.48;;
65753;SDS011;52488;47.502;18.940;2022-10-31T00:31:10;495.77;;;30.02;;
65753;SDS011;52488;47.502;18.940;2022-10-31T00:32:14;489.58;;;30.35;;
65753;SDS011;52488;47.502;18.940;2022-10-31T00:33:17;477.88;;;30.17;;
65753;SDS011;52488;47.502;18.940;2022-10-31T00:34:20;416.08;;;29.15;;
65753;SDS011;52488;47.502;18.940;2022-10-31T00:35:23;311.67;;;28.20;;
65753;SDS011;52488;47.502;18.940;2022-10-31T00:36:26;318.58;;;28.20;;
65753;SDS011;52488;47.502;18.940;2022-10-31T00:37:29;474.67;;;30.75;;
65753;SDS011;52488;47.502;18.940;2022-10-31T00:38:32;340.80;;;29.42;;
65753;SDS011;52488;47.502;18.940;2022-10-31T00:39:36;354.33;;;27.02;;
65753;SDS011;52488;47.502;18.940;2022-10-31T00:40:39;456.73;;;29.12;;
65753;SDS011;52488;47.502;18.940;2022-10-31T00:41:42;409.58;;;27.00;;
65753;SDS011;52488;47.502;18.940;2022-10-31T00:42:45;309.35;;;24.95;;
65753;SDS011;52488;47.502;18.940;2022-10-31T00:43:48;379.98;;;29.48;;
65753;SDS011;52488;47.502;18.940;2022-10-31T00:44:50;343.55;;;25.20;;
65753;SDS011;52488;47.502;18.940;2022-10-31T00:45:53;229.95;;;23.75;;
65753;SDS011;52488;47.502;18.940;2022-10-31T00:46:56;303.70;;;25.02;;
65753;SDS011;52488;47.502;18.940;2022-10-31T00:47:59;235.27;;;23.15;;
65753;SDS011;52488;47.502;18.940;2022-10-31T00:49:02;244.30;;;23.73;;
65753;SDS011;52488;47.502;18.940;2022-10-31T00:50:05;190.73;;;22.37;;
65753;SDS011;52488;47.502;18.940;2022-10-31T00:51:10;292.42;;;25.25;;
65753;SDS011;52488;47.502;18.940;2022-10-31T00:52:13;355.60;;;26.00;;
65753;SDS011;52488;47.502;18.940;2022-10-31T00:53:20;328.45;;;25.00;;
65753;SDS011;52488;47.502;18.940;2022-10-31T00:54:22;425.08;;;25.70;;
65753;SDS011;52488;47.502;18.940;2022-10-31T00:55:25;214.32;;;21.85;;
65753;SDS011;52488;47.502;18.940;2022-10-31T00:56:28;346.67;;;23.73;;
65753;SDS011;52488;47.502;18.940;2022-10-31T00:57:31;288.87;;;22.65;;
65753;SDS011;52488;47.502;18.940;2022-10-31T00:58:34;352.62;;;23.25;;
65753;SDS011;52488;47.502;18.940;2022-10-31T00:59:37;243.30;;;20.62;;
65753;SDS011;52488;47.502;18.940;2022-10-31T01:00:40;294.10;;;22.23;;
65753;SDS011;52488;47.502;18.940;2022-10-31T01:01:43;295.25;;;23.00;;
65753;SDS011;52488;47.502;18.940;2022-10-31T01:02:46;307.90;;;22.70;;
65753;SDS011;52488;47.502;18.940;2022-10-31T01:03:49;231.68;;;23.65;;
65753;SDS011;52488;47.502;18.940;2022-10-31T01:04:53;339.98;;;23.65;;
65753;SDS011;52488;47.502;18.940;2022-10-31T01:06:30;249.68;;;21.02;;
65753;SDS011;52488;47.502;18.940;2022-10-31T01:07:25;274.42;;;22.15;;
65753;SDS011;52488;47.502;18.940;2022-10-31T01:08:28;353.33;;;23.27;;
65753;SDS011;52488;47.502;18.940;2022-10-31T01:09:31;303.42;;;22.65;;
65753;SDS011;52488;47.502;18.940;2022-10-31T01:10:34;244.02;;;19.83;;
65753;SDS011;52488;47.502;18.940;2022-10-31T01:11:37;214.82;;;20.05;;
65753;SDS011;52488;47.502;18.940;2022-10-31T01:12:41;281.60;;;21.48;;
65753;SDS011;52488;47.502;18.940;2022-10-31T01:13:46;163.35;;;17.75;;
65753;SDS011;52488;47.502;18.940;2022-10-31T01:14:50;201.15;;;18.52;;
65753;SDS011;52488;47.502;18.940;2022-10-31T01:15:53;133.90;;;16.35;;
65753;SDS011;52488;47.502;18.940;2022-10-31T01:17:00;274.77;;;21.98;;
65753;SDS011;52488;47.502;18.940;2022-10-31T01:18:03;121.57;;;16.05;;
65753;SDS011;52488;47.502;18.940;2022-10-31T01:19:06;68.12;;;14.43;;
65753;SDS011;52488;47.502;18.940;2022-10-31T01:20:09;170.12;;;17.45;;
65753;SDS011;52488;47.502;18.940;2022-10-31T01:21:15;126.47;;;16.48;;
65753;SDS011;52488;47.502;18.940;2022-10-31T01:22:20;194.45;;;18.92;;
65753;SDS011;52488;47.502;18.940;2022-10-31T01:23:23;231.52;;;19.05;;
65753;SDS011;52488;47.502;18.940;2022-10-31T01:24:25;226.85;;;18.30;;
65753;SDS011;52488;47.502;18.940;2022-10-31T01:25:28;288.00;;;20.27;;
65753;SDS011;52488;47.502;18.940;2022-10-31T01:26:32;288.87;;;18.77;;
65753;SDS011;52488;47.502;18.940;2022-10-31T01:27:35;302.35;;;20.08;;
65753;SDS011;52488;47.502;18.940;2022-10-31T01:28:39;255.80;;;18.52;;
65753;SDS011;52488;47.502;18.940;2022-10-31T01:29:48;240.05;;;19.40;;
65753;SDS011;52488;47.502;18.940;2022-10-31T01:30:51;227.68;;;19.40;;
65753;SDS011;52488;47.502;18.940;2022-10-31T01:31:54;177.73;;;17.40;;
65753;SDS011;52488;47.502;18.940;2022-10-31T01:33:01;144.75;;;17.37;;
65753;SDS011;52488;47.502;18.940;2022-10-31T01:34:12;168.87;;;17.42;;
65753;SDS011;52488;47.502;18.940;2022-10-31T01:35:17;229.05;;;18.25;;
65753;SDS011;52488;47.502;18.940;2022-10-31T01:36:24;192.68;;;17.35;;
65753;SDS011;52488;47.502;18.940;2022-10-31T01:38:34;197.80;;;16.52;;
65753;SDS011;52488;47.502;18.940;2022-10-31T01:39:39;203.73;;;16.40;;
65753;SDS011;52488;47.502;18.940;2022-10-31T01:40:41;156.07;;;17.30;;
65753;SDS011;52488;47.502;18.940;2022-10-31T01:41:46;103.07;;;14.95;;
65753;SDS011;52488;47.502;18.940;2022-10-31T01:42:51;65.95;;;13.15;;
65753;SDS011;52488;47.502;18.940;2022-10-31T01:43:55;243.27;;;18.58;;
65753;SDS011;52488;47.502;18.940;2022-10-31T01:44:59;176.20;;;16.87;;
65753;SDS011;52488;47.502;18.940;2022-10-31T01:46:03;141.23;;;15.77;;
65753;SDS011;52488;47.502;18.940;2022-10-31T01:47:17;157.68;;;16.65;;
65753;SDS011;52488;47.502;18.940;2022-10-31T01:48:23;225.93;;;16.80;;
65753;SDS011;52488;47.502;18.940;2022-10-31T01:49:38;176.68;;;16.10;;
65753;SDS011;52488;47.502;18.940;2022-10-31T01:50:45;244.07;;;17.77;;
65753;SDS011;52488;47.502;18.940;2022-10-31T01:51:54;218.07;;;17.17;;
65753;SDS011;52488;47.502;18.940;2022-10-31T01:53:03;170.70;;;16.40;;
65753;SDS011;52488;47.502;18.940;2022-10-31T01:54:11;164.82;;;17.12;;
65753;SDS011;52488;47.502;18.940;2022-10-31T01:56:26;88.55;;;17.95;;
65753;SDS011;52488;47.502;18.940;2022-10-31T01:57:30;119.25;;;16.75;;
65753;SDS011;52488;47.502;18.940;2022-10-31T01:58:34;102.05;;;16.20;;
65753;SDS011;52488;47.502;18.940;2022-10-31T01:59:40;351.48;;;21.37;;
65753;SDS011;52488;47.502;18.940;2022-10-31T02:00:48;248.45;;;18.42;;
65753;SDS011;52488;47.502;18.940;2022-10-31T02:01:54;185.75;;;17.52;;
65753;SDS011;52488;47.502;18.940;2022-10-31T02:02:57;376.90;;;21.08;;
65753;SDS011;52488;47.502;18.940;2022-10-31T02:04:02;233.38;;;17.17;;
65753;SDS011;52488;47.502;18.940;2022-10-31T02:05:08;233.00;;;17.33;;
65753;SDS011;52488;47.502;18.940;2022-10-31T02:06:21;185.80;;;17.35;;
65753;SDS011;52488;47.502;18.940;2022-10-31T02:07:58;279.98;;;18.35;;
65753;SDS011;52488;47.502;18.940;2022-10-31T02:09:03;193.95;;;16.67;;
65753;SDS011;52488;47.502;18.940;2022-10-31T02:10:08;245.23;;;18.70;;
65753;SDS011;52488;47.502;18.940;2022-10-31T02:11:11;264.60;;;18.65;;
65753;SDS011;52488;47.502;18.940;2022-10-31T02:12:14;326.60;;;20.02;;
65753;SDS011;52488;47.502;18.940;2022-10-31T02:13:23;314.48;;;19.40;;
65753;SDS011;52488;47.502;18.940;2022-10-31T02:14:32;206.48;;;16.10;;
65753;SDS011;52488;47.502;18.940;2022-10-31T02:15:36;344.23;;;19.80;;
65753;SDS011;52488;47.502;18.940;2022-10-31T02:16:40;311.15;;;20.25;;
65753;SDS011;52488;47.502;18.940;2022-10-31T02:17:43;231.23;;;16.60;;
65753;SDS011;52488;47.502;18.940;2022-10-31T02:18:47;386.55;;;24.23;;
65753;SDS011;52488;47.502;18.940;2022-10-31T02:21:27;376.45;;;22.02;;
65753;SDS011;52488;47.502;18.940;2022-10-31T02:25:24;464.48;;;21.92;;
65753;SDS011;52488;47.502;18.940;2022-10-31T02:30:25;246.90;;;15.00;;
65753;SDS011;52488;47.502;18.940;2022-10-31T02:31:54;162.45;;;13.73;;
65753;SDS011;52488;47.502;18.940;2022-10-31T02:34:41;187.65;;;13.68;;
65753;SDS011;52488;47.502;18.940;2022-10-31T02:37:27;281.77;;;15.98;;
65753;SDS011;52488;47.502;18.940;2022-10-31T02:40:01;182.10;;;15.77;;
65753;SDS011;52488;47.502;18.940;2022-10-31T02:41:14;109.12;;;11.80;;
65753;SDS011;52488;47.502;18.940;2022-10-31T02:44:00;99.05;;;11.90;;
65753;SDS011;52488;47.502;18.940;2022-10-31T02:48:09;227.27;;;15.07;;
65753;SDS011;52488;47.502;18.940;2022-10-31T02:49:19;182.45;;;14.05;;
65753;SDS011;52488;47.502;18.940;2022-10-31T02:50:26;241.85;;;15.95;;
65753;SDS011;52488;47.502;18.940;2022-10-31T02:51:35;157.18;;;13.95;;
65753;SDS011;52488;47.502;18.940;2022-10-31T02:52:38;288.35;;;16.67;;
65753;SDS011;52488;47.502;18.940;2022-10-31T02:53:41;368.02;;;19.30;;
65753;SDS011;52488;47.502;18.940;2022-10-31T02:54:45;355.65;;;18.58;;
65753;SDS011;52488;47.502;18.940;2022-10-31T02:55:59;359.75;;;18.25;;
65753;SDS011;52488;47.502;18.940;2022-10-31T02:57:06;366.70;;;18.60;;
65753;SDS011;52488;47.502;18.940;2022-10-31T02:58:14;170.38;;;14.93;;
65753;SDS011;52488;47.502;18.940;2022-10-31T02:59:25;197.00;;;14.10;;
65753;SDS011;52488;47.502;18.940;2022-10-31T03:00:30;317.13;;;19.20;;
65753;SDS011;52488;47.502;18.940;2022-10-31T03:03:25;285.10;;;17.75;;
65753;SDS011;52488;47.502;18.940;2022-10-31T03:09:33;318.02;;;17.98;;
65753;SDS011;52488;47.502;18.940;2022-10-31T03:10:59;249.07;;;16.10;;
65753;SDS011;52488;47.502;18.940;2022-10-31T03:12:07;235.50;;;16.20;;
65753;SDS011;52488;47.502;18.940;2022-10-31T03:13:14;293.33;;;16.62;;
65753;SDS011;52488;47.502;18.940;2022-10-31T03:14:31;373.50;;;19.12;;
65753;SDS011;52488;47.502;18.940;2022-10-31T03:15:39;306.00;;;17.65;;
65753;SDS011;52488;47.502;18.940;2022-10-31T03:16:51;39.67;;;12.48;;
65753;SDS011;52488;47.502;18.940;2022-10-31T03:18:00;203.62;;;15.10;;
65753;SDS011;52488;47.502;18.940;2022-10-31T03:19:06;204.10;;;14.65;;
65753;SDS011;52488;47.502;18.940;2022-10-31T03:20:13;164.62;;;15.43;;
65753;SDS011;52488;47.502;18.940;2022-10-31T03:21:21;150.43;;;14.48;;
65753;SDS011;52488;47.502;18.940;2022-10-31T03:22:29;144.55;;;13.95;;
65753;SDS011;52488;47.502;18.940;2022-10-31T03:23:35;114.35;;;13.85;;
65753;SDS011;52488;47.502;18.940;2022-10-31T03:24:40;197.65;;;15.80;;
65753;SDS011;52488;47.502;18.940;2022-10-31T03:25:44;174.20;;;16.30;;
65753;SDS011;52488;47.502;18.940;2022-10-31T03:26:50;392.80;;;20.83;;
65753;SDS011;52488;47.502;18.940;2022-10-31T03:27:55;287.67;;;17.77;;
65753;SDS011;52488;47.502;18.940;2022-10-31T03:29:03;340.75;;;18.92;;
65753;SDS011;52488;47.502;18.940;2022-10-31T03:30:09;167.27;;;14.70;;
65753;SDS011;52488;47.502;18.940;2022-10-31T03:31:13;193.25;;;15.55;;
65753;SDS011;52488;47.502;18.940;2022-10-31T03:32:42;335.60;;;18.42;;
65753;SDS011;52488;47.502;18.940;2022-10-31T03:33:48;84.18;;;14.18;;
65753;SDS011;52488;47.502;18.940;2022-10-31T03:34:54;189.75;;;15.57;;
65753;SDS011;52488;47.502;18.940;2022-10-31T03:35:59;225.32;;;16.73;;
65753;SDS011;52488;47.502;18.940;2022-10-31T03:37:07;143.85;;;14.65;;
65753;SDS011;52488;47.502;18.940;2022-10-31T03:38:14;189.85;;;15.35;;
65753;SDS011;52488;47.502;18.940;2022-10-31T03:39:17;46.33;;;11.57;;
65753;SDS011;52488;47.502;18.940;2022-10-31T03:40:24;85.43;;;13.35;;
65753;SDS011;52488;47.502;18.940;2022-10-31T03:41:31;243.98;;;16.55;;
65753;SDS011;52488;47.502;18.940;2022-10-31T03:42:39;137.43;;;14.82;;
65753;SDS011;52488;47.502;18.940;2022-10-31T03:43:48;230.05;;;15.35;;
65753;SDS011;52488;47.502;18.940;2022-10-31T03:45:07;283.55;;;16.35;;
65753;SDS011;52488;47.502;18.940;2022-10-31T03:46:21;420.85;;;20.77;;
65753;SDS011;52488;47.502;18.940;2022-10-31T03:47:25;287.35;;;17.70;;
65753;SDS011;52488;47.502;18.940;2022-10-31T03:48:28;203.45;;;15.07;;
65753;SDS011;52488;47.502;18.940;2022-10-31T03:49:31;130.48;;;14.30;;
65753;SDS011;52488;47.502;18.940;2022-10-31T03:50:40;219.13;;;17.75;;
65753;SDS011;52488;47.502;18.940;2022-10-31T03:53:26;224.45;;;14.18;;
65753;SDS011;52488;47.502;18.940;2022-10-31T03:54:45;124.25;;;12.77;;
65753;SDS011;52488;47.502;18.940;2022-10-31T03:55:59;56.53;;;11.40;;
65753;SDS011;52488;47.502;18.940;2022-10-31T03:57:14;149.12;;;13.23;;
65753;SDS011;52488;47.502;18.940;2022-10-31T03:58:32;164.95;;;14.27;;
65753;SDS011;52488;47.502;18.940;2022-10-31T03:59:43;179.38;;;13.45;;
65753;SDS011;52488;47.502;18.940;2022-10-31T04:00:50;338.77;;;18.70;;
65753;SDS011;52488;47.502;18.940;2022-10-31T04:01:56;334.45;;;18.77;;
65753;SDS011;52488;47.502;18.940;2022-10-31T04:03:04;103.12;;;12.82;;
65753;SDS011;52488;47.502;18.940;2022-10-31T04:04:12;144.48;;;14.18;;
65753;SDS011;52488;47.502;18.940;2022-10-31T04:05:16;120.85;;;12.77;;
65753;SDS011;52488;47.502;18.940;2022-10-31T04:06:20;196.20;;;14.70;;
65753;SDS011;52488;47.502;18.940;2022-10-31T04:07:28;164.68;;;13.23;;
65753;SDS011;52488;47.502;18.940;2022-10-31T04:08:43;126.62;;;11.77;;
65753;SDS011;52488;47.502;18.940;2022-10-31T04:09:51;106.47;;;11.55;;
65753;SDS011;52488;47.502;18.940;2022-10-31T04:10:56;74.97;;;10.25;;
65753;SDS011;52488;47.502;18.940;2022-10-31T04:12:02;62.40;;;10.98;;
65753;SDS011;52488;47.502;18.940;2022-10-31T04:13:12;24.83;;;8.93;;
65753;SDS011;52488;47.502;18.940;2022-10-31T04:14:26;28.23;;;8.80;;
65753;SDS011;52488;47.502;18.940;2022-10-31T04:15:32;18.55;;;9.05;;
65753;SDS011;52488;47.502;18.940;2022-10-31T04:16:36;34.88;;;8.55;;
65753;SDS011;52488;47.502;18.940;2022-10-31T04:17:42;38.40;;;8.15;;
65753;SDS011;52488;47.502;18.940;2022-10-31T04:18:48;19.60;;;8.55;;
65753;SDS011;52488;47.502;18.940;2022-10-31T04:19:52;22.70;;;9.00;;
65753;SDS011;52488;47.502;18.940;2022-10-31T04:21:02;15.70;;;8.55;;
65753;SDS011;52488;47.502;18.940;2022-10-31T04:22:09;15.50;;;7.85;;
65753;SDS011;52488;47.502;18.940;2022-10-31T04:23:33;16.35;;;9.10;;
65753;SDS011;52488;47.502;18.940;2022-10-31T04:24:37;17.05;;;8.40;;
65753;SDS011;52488;47.502;18.940;2022-10-31T04:25:42;13.98;;;8.25;;
65753;SDS011;52488;47.502;18.940;2022-10-31T04:26:45;21.73;;;8.40;;
65753;SDS011;52488;47.502;18.940;2022-10-31T04:27:48;16.92;;;8.13;;
65753;SDS011;52488;47.502;18.940;2022-10-31T04:28:51;18.00;;;9.10;;
65753;SDS011;52488;47.502;18.940;2022-10-31T04:29:54;12.98;;;8.45;;
65753;SDS011;52488;47.502;18.940;2022-10-31T04:30:57;14.38;;;8.25;;
65753;SDS011;52488;47.502;18.940;2022-10-31T04:32:00;15.82;;;8.80;;
65753;SDS011;52488;47.502;18.940;2022-10-31T04:33:03;16.17;;;8.02;;
65753;SDS011;52488;47.502;18.940;2022-10-31T04:34:05;24.08;;;8.35;;
65753;SDS011;52488;47.502;18.940;2022-10-31T04:35:09;20.40;;;8.00;;
65753;SDS011;52488;47.502;18.940;2022-10-31T04:36:13;14.80;;;8.75;;
65753;SDS011;52488;47.502;18.940;2022-10-31T04:37:15;19.27;;;8.50;;
65753;SDS011;52488;47.502;18.940;2022-10-31T04:38:18;16.27;;;7.93;;
65753;SDS011;52488;47.502;18.940;2022-10-31T04:39:21;26.52;;;8.38;;
65753;SDS011;52488;47.502;18.940;2022-10-31T04:40:28;22.10;;;8.10;;
65753;SDS011;52488;47.502;18.940;2022-10-31T04:41:31;20.88;;;7.47;;
65753;SDS011;52488;47.502;18.940;2022-10-31T04:42:36;18.08;;;6.85;;
65753;SDS011;52488;47.502;18.940;2022-10-31T04:43:41;10.45;;;7.57;;
65753;SDS011;52488;47.502;18.940;2022-10-31T04:44:44;10.80;;;7.25;;
65753;SDS011;52488;47.502;18.940;2022-10-31T04:45:47;37.58;;;8.13;;
65753;SDS011;52488;47.502;18.940;2022-10-31T04:46:49;15.40;;;7.35;;
65753;SDS011;52488;47.502;18.940;2022-10-31T04:47:52;15.60;;;7.95;;
65753;SDS011;52488;47.502;18.940;2022-10-31T04:48:55;13.25;;;8.18;;
65753;SDS011;52488;47.502;18.940;2022-10-31T04:49:59;15.35;;;8.18;;
65753;SDS011;52488;47.502;18.940;2022-10-31T04:51:02;20.50;;;8.40;;
65753;SDS011;52488;47.502;18.940;2022-10-31T04:52:08;25.98;;;8.40;;
65753;SDS011;52488;47.502;18.940;2022-10-31T04:53:15;49.60;;;9.40;;
65753;SDS011;52488;47.502;18.940;2022-10-31T04:54:18;27.27;;;8.98;;
65753;SDS011;52488;47.502;18.940;2022-10-31T04:55:20;20.20;;;8.88;;
65753;SDS011;52488;47.502;18.940;2022-10-31T04:56:30;20.73;;;9.10;;
65753;SDS011;52488;47.502;18.940;2022-10-31T04:57:39;43.63;;;9.10;;
65753;SDS011;52488;47.502;18.940;2022-10-31T04:58:46;90.12;;;11.48;;
65753;SDS011;52488;47.502;18.940;2022-10-31T04:59:49;43.42;;;9.27;;
65753;SDS011;52488;47.502;18.940;2022-10-31T05:00:53;83.03;;;10.60;;
65753;SDS011;52488;47.502;18.940;2022-10-31T05:01:57;18.92;;;8.57;;
65753;SDS011;52488;47.502;18.940;2022-10-31T05:03:00;31.80;;;9.20;;
65753;SDS011;52488;47.502;18.940;2022-10-31T05:04:04;46.42;;;9.10;;
65753;SDS011;52488;47.502;18.940;2022-10-31T05:05:07;21.42;;;8.98;;
65753;SDS011;52488;47.502;18.940;2022-10-31T05:06:10;41.92;;;9.32;;
65753;SDS011;52488;47.502;18.940;2022-10-31T05:07:13;56.15;;;10.55;;
65753;SDS011;52488;47.502;18.940;2022-10-31T05:08:16;67.22;;;9.63;;
65753;SDS011;52488;47.502;18.940;2022-10-31T05:09:18;41.47;;;9.98;;
65753;SDS011;52488;47.502;18.940;2022-10-31T05:10:22;91.85;;;11.35;;
65753;SDS011;52488;47.502;18.940;2022-10-31T05:11:27;80.97;;;9.98;;
65753;SDS011;52488;47.502;18.940;2022-10-31T05:12:30;39.25;;;9.52;;
65753;SDS011;52488;47.502;18.940;2022-10-31T05:13:33;30.95;;;9.05;;
65753;SDS011;52488;47.502;18.940;2022-10-31T05:14:36;64.40;;;9.77;;
65753;SDS011;52488;47.502;18.940;2022-10-31T05:15:39;97.15;;;10.43;;
65753;SDS011;52488;47.502;18.940;2022-10-31T05:16:42;54.03;;;10.95;;
65753;SDS011;52488;47.502;18.940;2022-10-31T05:17:45;36.72;;;9.18;;
65753;SDS011;52488;47.502;18.940;2022-10-31T05:18:48;50.00;;;9.27;;
65753;SDS011;52488;47.502;18.940;2022-10-31T05:19:51;87.25;;;10.38;;
65753;SDS011;52488;47.502;18.940;2022-10-31T05:21:01;70.28;;;9.13;;
65753;SDS011;52488;47.502;18.940;2022-10-31T05:22:04;60.42;;;10.18;;
65753;SDS011;52488;47.502;18.940;2022-10-31T05:23:07;56.88;;;9.90;;
65753;SDS011;52488;47.502;18.940;2022-10-31T05:24:10;47.25;;;8.32;;
65753;SDS011;52488;47.502;18.940;2022-10-31T05:25:13;54.28;;;9.05;;
65753;SDS011;52488;47.502;18.940;2022-10-31T05:26:17;68.53;;;9.32;;
65753;SDS011;52488;47.502;18.940;2022-10-31T05:27:20;55.45;;;9.68;;
65753;SDS011;52488;47.502;18.940;2022-10-31T05:28:24;37.40;;;9.23;;
65753;SDS011;52488;47.502;18.940;2022-10-31T05:29:27;28.73;;;9.10;;
65753;SDS011;52488;47.502;18.940;2022-10-31T05:30:30;25.85;;;9.13;;
65753;SDS011;52488;47.502;18.940;2022-10-31T05:31:34;18.83;;;8.55;;
65753;SDS011;52488;47.502;18.940;2022-10-31T05:32:37;53.33;;;9.23;;
65753;SDS011;52488;47.502;18.940;2022-10-31T05:33:44;35.47;;;8.95;;
65753;SDS011;52488;47.502;18.940;2022-10-31T05:34:47;41.42;;;9.45;;
65753;SDS011;52488;47.502;18.940;2022-10-31T05:35:50;25.77;;;8.95;;
65753;SDS011;52488;47.502;18.940;2022-10-31T05:36:53;16.58;;;8.70;;
65753;SDS011;52488;47.502;18.940;2022-10-31T05:37:56;18.45;;;8.35;;
65753;SDS011;52488;47.502;18.940;2022-10-31T05:39:00;24.83;;;8.82;;
65753;SDS011;52488;47.502;18.940;2022-10-31T05:40:06;23.10;;;8.80;;
65753;SDS011;52488;47.502;18.940;2022-10-31T05:41:10;18.17;;;8.38;;
65753;SDS011;52488;47.502;18.940;2022-10-31T05:42:13;14.35;;;8.38;;
65753;SDS011;52488;47.502;18.940;2022-10-31T05:43:16;16.23;;;8.98;;
65753;SDS011;52488;47.502;18.940;2022-10-31T05:44:19;15.98;;;8.30;;
65753;SDS011;52488;47.502;18.940;2022-10-31T05:45:22;16.25;;;8.35;;
65753;SDS011;52488;47.502;18.940;2022-10-31T05:46:26;17.67;;;8.18;;
65753;SDS011;52488;47.502;18.940;2022-10-31T05:47:29;17.02;;;8.48;;
65753;SDS011;52488;47.502;18.940;2022-10-31T05:48:32;13.93;;;8.38;;
65753;SDS011;52488;47.502;18.940;2022-10-31T05:49:35;16.25;;;8.65;;
65753;SDS011;52488;47.502;18.940;2022-10-31T05:50:37;14.68;;;7.93;;
65753;SDS011;52488;47.502;18.940;2022-10-31T05:51:40;16.02;;;7.82;;
65753;SDS011;52488;47.502;18.940;2022-10-31T05:52:43;15.95;;;8.85;;
65753;SDS011;52488;47.502;18.940;2022-10-31T05:53:46;19.85;;;8.88;;
65753;SDS011;52488;47.502;18.940;2022-10-31T05:54:50;64.32;;;9.63;;
65753;SDS011;52488;47.502;18.940;2022-10-31T05:55:53;33.80;;;9.70;;
65753;SDS011;52488;47.502;18.940;2022-10-31T05:56:56;48.00;;;8.98;;
65753;SDS011;52488;47.502;18.940;2022-10-31T05:57:58;47.10;;;9.25;;
65753;SDS011;52488;47.502;18.940;2022-10-31T05:59:02;74.50;;;9.25;;
65753;SDS011;52488;47.502;18.940;2022-10-31T06:00:05;14.23;;;8.30;;
65753;SDS011;52488;47.502;18.940;2022-10-31T06:01:09;23.30;;;8.23;;
65753;SDS011;52488;47.502;18.940;2022-10-31T06:02:12;16.02;;;8.38;;
65753;SDS011;52488;47.502;18.940;2022-10-31T06:03:15;13.15;;;7.95;;
65753;SDS011;52488;47.502;18.940;2022-10-31T06:04:18;17.85;;;8.43;;
65753;SDS011;52488;47.502;18.940;2022-10-31T06:05:21;15.10;;;7.85;;
65753;SDS011;52488;47.502;18.940;2022-10-31T06:06:29;19.20;;;8.07;;
65753;SDS011;52488;47.502;18.940;2022-10-31T06:07:35;12.88;;;7.93;;
65753;SDS011;52488;47.502;18.940;2022-10-31T06:08:39;12.85;;;7.37;;
65753;SDS011;52488;47.502;18.940;2022-10-31T06:09:42;15.98;;;9.23;;
65753;SDS011;52488;47.502;18.940;2022-10-31T06:10:45;13.40;;;7.65;;
65753;SDS011;52488;47.502;18.940;2022-10-31T06:11:48;13.80;;;7.78;;
65753;SDS011;52488;47.502;18.940;2022-10-31T06:12:51;13.90;;;8.57;;
65753;SDS011;52488;47.502;18.940;2022-10-31T06:13:54;15.88;;;8.50;;
65753;SDS011;52488;47.502;18.940;2022-10-31T06:14:57;13.93;;;7.87;;
65753;SDS011;52488;47.502;18.940;2022-10-31T06:16:00;15.57;;;8.93;;
65753;SDS011;52488;47.502;18.940;2022-10-31T06:17:03;14.77;;;9.25;;
65753;SDS011;52488;47.502;18.940;2022-10-31T06:18:06;14.23;;;8.75;;
65753;SDS011;52488;47.502;18.940;2022-10-31T06:19:09;14.02;;;8.25;;
65753;SDS011;52488;47.502;18.940;2022-10-31T06:20:12;14.40;;;8.23;;
65753;SDS011;52488;47.502;18.940;2022-10-31T06:21:15;20.73;;;9.15;;
65753;SDS011;52488;47.502;18.940;2022-10-31T06:22:21;15.27;;;9.30;;
65753;SDS011;52488;47.502;18.940;2022-10-31T06:23:24;20.17;;;8.77;;
65753;SDS011;52488;47.502;18.940;2022-10-31T06:24:27;20.85;;;9.15;;
65753;SDS011;52488;47.502;18.940;2022-10-31T06:25:30;16.42;;;9.80;;
65753;SDS011;52488;47.502;18.940;2022-10-31T06:26:33;25.70;;;9.02;;
65753;SDS011;52488;47.502;18.940;2022-10-31T06:27:39;62.40;;;9.40;;
65753;SDS011;52488;47.502;18.940;2022-10-31T06:28:42;53.38;;;9.10;;
65753;SDS011;52488;47.502;18.940;2022-10-31T06:29:45;41.08;;;9.30;;
65753;SDS011;52488;47.502;18.940;2022-10-31T06:30:48;71.05;;;10.80;;
65753;SDS011;52488;47.502;18.940;2022-10-31T06:31:52;51.45;;;10.38;;
65753;SDS011;52488;47.502;18.940;2022-10-31T06:33:00;29.45;;;9.90;;
65753;SDS011;52488;47.502;18.940;2022-10-31T06:34:04;46.95;;;10.43;;
65753;SDS011;52488;47.502;18.940;2022-10-31T06:35:07;58.28;;;8.88;;
65753;SDS011;52488;47.502;18.940;2022-10-31T06:36:10;59.15;;;9.30;;
65753;SDS011;52488;47.502;18.940;2022-10-31T06:37:14;95.53;;;10.48;;
65753;SDS011;52488;47.502;18.940;2022-10-31T06:38:17;58.42;;;10.48;;
65753;SDS011;52488;47.502;18.940;2022-10-31T06:39:20;71.62;;;10.55;;
65753;SDS011;52488;47.502;18.940;2022-10-31T06:40:23;63.55;;;10.48;;
65753;SDS011;52488;47.502;18.940;2022-10-31T06:41:26;69.50;;;11.20;;
65753;SDS011;52488;47.502;18.940;2022-10-31T06:42:29;84.97;;;9.98;;
65753;SDS011;52488;47.502;18.940;2022-10-31T06:43:32;74.82;;;11.05;;